Terminal Aerodrome Forecast
Issued by NWS Brownsville, TX

Home | Current Version | Previous Version | Text Only | Print | Product List | Glossary On
Versions: 1 2 3 4 5 6 7 8 9 10 11 12 13 14 15 16 17 18 19 20 21 22 23 24
000
FTUS44 KBRO 302327
TAFMFE
TAF
KMFE 302327Z 3100/3124 12012G20KT P6SM SKC
     FM310300 12006KT P6SM OVC019
     FM311200 14015KT P6SM BKN030 PROB30 3112/3118 P6SM TS BKN020CB
     FM311800 13015KT P6SM BKN050=

USA.gov is the U.S. government's official web portal to all federal, state and local government web resources and services.